SAS71A ENBO-ENGM
Flight info
| Callsign | SAS71A |
|---|---|
| Flight time | N/A |
| Altitude | 36000 |
| Route | DISMU DCT SOMUB DCT BELGU |
| Aircraft | B737/M-SDE2E3FGHIRWXY/LB1 |
Departure
| Time | N/A |
|---|---|
| Airport | Bodø Airport (ENBO) |
Arrival
| Time | 2026-05-05 10:45 |
|---|---|
| Airport | Oslo-Gardermoen International Airport (ENGM) |
| Time | Latitude | Longitude | Altitude | Speed | Heading |
|---|---|---|---|---|---|
| 2026-05-05 10:27 | 61.47002 | 10.73388 | 23450 ft | 350 kts | 202° |
| 2026-05-05 10:27 | 61.44614 | 10.72433 | 23119 ft | 353 kts | 192° |
| 2026-05-05 10:27 | 61.42134 | 10.72442 | 22883 ft | 361 kts | 183° |
| 2026-05-05 10:28 | 61.39605 | 10.73245 | 22659 ft | 373 kts | 178° |
| 2026-05-05 10:28 | 61.37025 | 10.74250 | 22409 ft | 379 kts | 177° |
| 2026-05-05 10:28 | 61.34445 | 10.75289 | 22154 ft | 377 kts | 177° |
| 2026-05-05 10:28 | 61.31877 | 10.76329 | 21751 ft | 375 kts | 177° |
| 2026-05-05 10:29 | 61.29334 | 10.77346 | 21251 ft | 370 kts | 177° |
| 2026-05-05 10:29 | 61.26818 | 10.78339 | 20722 ft | 367 kts | 177° |
| 2026-05-05 10:29 | 61.24322 | 10.79315 | 20187 ft | 363 kts | 177° |
| 2026-05-05 10:29 | 61.21858 | 10.80270 | 19664 ft | 359 kts | 177° |
| 2026-05-05 10:30 | 61.19416 | 10.81210 | 19148 ft | 355 kts | 177° |
| 2026-05-05 10:30 | 61.16997 | 10.82137 | 18632 ft | 352 kts | 177° |
| 2026-05-05 10:30 | 61.14601 | 10.83051 | 18121 ft | 349 kts | 177° |
| 2026-05-05 10:30 | 61.12224 | 10.83955 | 17612 ft | 347 kts | 177° |
| 2026-05-05 10:31 | 61.09858 | 10.84855 | 17099 ft | 345 kts | 177° |
| 2026-05-05 10:31 | 61.07514 | 10.85746 | 16580 ft | 342 kts | 176° |
| 2026-05-05 10:31 | 61.05180 | 10.86629 | 16068 ft | 340 kts | 176° |
| 2026-05-05 10:31 | 61.02862 | 10.87505 | 15553 ft | 337 kts | 176° |
| 2026-05-05 10:32 | 61.01338 | 10.88082 | 15228 ft | 336 kts | 175° |
| 2026-05-05 10:32 | 60.99015 | 10.88961 | 14714 ft | 334 kts | 175° |
| 2026-05-05 10:32 | 60.96745 | 10.89819 | 14214 ft | 331 kts | 175° |
| 2026-05-05 10:32 | 60.94478 | 10.90673 | 13702 ft | 330 kts | 174° |
| 2026-05-05 10:33 | 60.92228 | 10.91520 | 13215 ft | 328 kts | 174° |
| 2026-05-05 10:33 | 60.89994 | 10.92359 | 12696 ft | 326 kts | 173° |
| 2026-05-05 10:33 | 60.87766 | 10.93196 | 12201 ft | 324 kts | 173° |
| 2026-05-05 10:33 | 60.85549 | 10.94027 | 11694 ft | 322 kts | 172° |
| 2026-05-05 10:34 | 60.83350 | 10.94851 | 11197 ft | 320 kts | 172° |
| 2026-05-05 10:34 | 60.81163 | 10.95668 | 10691 ft | 319 kts | 172° |
| 2026-05-05 10:34 | 60.78997 | 10.96477 | 10397 ft | 311 kts | 172° |
| 2026-05-05 10:34 | 60.76909 | 10.97258 | 10225 ft | 299 kts | 172° |
| 2026-05-05 10:35 | 60.74927 | 10.97997 | 10095 ft | 287 kts | 172° |
| 2026-05-05 10:35 | 60.72992 | 10.98715 | 9906 ft | 279 kts | 172° |
| 2026-05-05 10:35 | 60.71061 | 10.99432 | 9551 ft | 278 kts | 172° |
| 2026-05-05 10:35 | 60.69190 | 11.00128 | 9214 ft | 276 kts | 172° |
| 2026-05-05 10:36 | 60.67313 | 11.00823 | 8871 ft | 274 kts | 172° |
| 2026-05-05 10:36 | 60.65441 | 11.01515 | 8524 ft | 273 kts | 172° |
| 2026-05-05 10:36 | 60.63576 | 11.02206 | 8177 ft | 272 kts | 172° |
| 2026-05-05 10:36 | 60.61716 | 11.02893 | 7819 ft | 271 kts | 172° |
| 2026-05-05 10:37 | 60.59869 | 11.03577 | 7479 ft | 270 kts | 172° |
| 2026-05-05 10:37 | 60.58025 | 11.04250 | 7125 ft | 268 kts | 171° |
| 2026-05-05 10:37 | 60.56194 | 11.04928 | 6789 ft | 268 kts | 171° |
| 2026-05-05 10:37 | 60.54365 | 11.05602 | 6447 ft | 268 kts | 172° |
| 2026-05-05 10:38 | 60.52525 | 11.06276 | 6102 ft | 267 kts | 171° |
| 2026-05-05 10:38 | 60.50704 | 11.06947 | 5765 ft | 265 kts | 172° |
| 2026-05-05 10:38 | 60.48913 | 11.07609 | 5618 ft | 257 kts | 172° |
| 2026-05-05 10:38 | 60.47189 | 11.08293 | 5493 ft | 249 kts | 164° |
| 2026-05-05 10:39 | 60.45733 | 11.10081 | 5371 ft | 242 kts | 138° |
| 2026-05-05 10:39 | 60.44541 | 11.12427 | 5201 ft | 237 kts | 136° |
| 2026-05-05 10:39 | 60.43377 | 11.14734 | 4944 ft | 231 kts | 136° |
| 2026-05-05 10:39 | 60.42248 | 11.16966 | 4676 ft | 223 kts | 136° |
| 2026-05-05 10:40 | 60.41135 | 11.19010 | 4452 ft | 210 kts | 150° |
| 2026-05-05 10:40 | 60.39801 | 11.19555 | 4315 ft | 193 kts | 194° |
| 2026-05-05 10:40 | 60.38488 | 11.18825 | 4053 ft | 198 kts | 197° |
| 2026-05-05 10:40 | 60.37182 | 11.18135 | 3816 ft | 192 kts | 198° |
| 2026-05-05 10:41 | 60.35911 | 11.17435 | 3578 ft | 188 kts | 197° |
| 2026-05-05 10:41 | 60.34653 | 11.16731 | 3326 ft | 187 kts | 199° |
| 2026-05-05 10:41 | 60.33419 | 11.15993 | 3072 ft | 183 kts | 199° |
| 2026-05-05 10:41 | 60.32201 | 11.15284 | 2828 ft | 177 kts | 198° |
| 2026-05-05 10:42 | 60.29855 | 11.13903 | 2364 ft | 173 kts | 194° |
| 2026-05-05 10:42 | 60.28681 | 11.14114 | 2134 ft | 168 kts | 156° |
| 2026-05-05 10:42 | 60.27574 | 11.14105 | 2048 ft | 170 kts | 208° |
| 2026-05-05 10:43 | 60.26603 | 11.12728 | 1827 ft | 169 kts | 221° |
| 2026-05-05 10:43 | 60.25665 | 11.11411 | 1666 ft | 154 kts | 210° |
| 2026-05-05 10:43 | 60.24666 | 11.10815 | 1452 ft | 151 kts | 193° |
| 2026-05-05 10:43 | 60.23644 | 11.10333 | 1192 ft | 150 kts | 199° |
| 2026-05-05 10:44 | 60.22645 | 11.09763 | 941 ft | 149 kts | 197° |
| 2026-05-05 10:44 | 60.21653 | 11.09194 | 735 ft | 150 kts | 198° |
| 2026-05-05 10:44 | 60.20700 | 11.08644 | 678 ft | 121 kts | 197° |
| 2026-05-05 10:44 | 60.20127 | 11.08317 | 675 ft | 54 kts | 191° |
| 2026-05-05 10:45 | 60.20004 | 11.08323 | 675 ft | 7 kts | 168° |
| 2026-05-05 10:45 | 60.19907 | 11.08397 | 672 ft | 10 kts | 133° |
| 2026-05-05 10:45 | 60.19885 | 11.08471 | 675 ft | 3 kts | 101° |
| 2026-05-05 10:45 | 60.19882 | 11.08504 | 676 ft | 2 kts | 101° |
| 2026-05-05 10:46 | 60.19870 | 11.08594 | 677 ft | 10 kts | 104° |
| 2026-05-05 10:46 | 60.19852 | 11.08736 | 676 ft | 11 kts | 105° |
| 2026-05-05 10:46 | 60.19823 | 11.08939 | 675 ft | 17 kts | 106° |
| 2026-05-05 10:46 | 60.19783 | 11.09208 | 682 ft | 24 kts | 106° |
| 2026-05-05 10:47 | 60.19740 | 11.09522 | 682 ft | 23 kts | 105° |
| 2026-05-05 10:47 | 60.19692 | 11.09820 | 679 ft | 22 kts | 107° |
| 2026-05-05 10:47 | 60.19670 | 11.09978 | 684 ft | 1 kts | 105° |
| 2026-05-05 10:47 | 60.19670 | 11.09979 | 684 ft | 0 kts | 105° |